Аэропорт: Кокшетау. Кокшетау

ICAO: UACK

METAR:
Информация по данной станции не доступна
METAR:
2021-04-21 11:01:00
TAF UACK 211101Z 2112/2121 35008G13MPS 9999 NSC TEMPO 2112/2121 03006G11MPS BKN030